TimeCST,TemperatureF,Dew PointF,Humidity,Sea Level PressureIn,VisibilityMPH,Wind Direction,Wind SpeedMPH,Gust SpeedMPH,PrecipitationIn,Events,Conditions,WindDirDegrees,DateUTC
12:53 AM,19.9,15.1,81,30.32,10.0,South,4.6,-,N/A,,Clear,190,2013-01-07 06:53:00
1:53 AM,19.0,15.1,85,30.33,10.0,South,6.9,-,N/A,,Clear,180,2013-01-07 07:53:00
2:53 AM,21.0,17.1,85,30.33,10.0,SSW,4.6,-,N/A,,Clear,200,2013-01-07 08:53:00
3:53 AM,19.9,17.1,89,30.32,10.0,South,8.1,-,N/A,,Clear,180,2013-01-07 09:53:00
4:53 AM,21.9,18.0,85,30.31,10.0,South,9.2,-,N/A,,Clear,190,2013-01-07 10:53:00
5:53 AM,23.0,18.0,81,30.30,10.0,South,11.5,-,N/A,,Clear,190,2013-01-07 11:53:00
6:53 AM,23.0,18.0,81,30.29,10.0,South,11.5,-,N/A,,Clear,190,2013-01-07 12:53:00
7:53 AM,24.1,19.0,81,30.29,10.0,SSW,12.7,-,N/A,,Clear,200,2013-01-07 13:53:00
8:53 AM,27.0,19.9,75,30.27,10.0,SSW,16.1,-,N/A,,Clear,200,2013-01-07 14:53:00
9:53 AM,30.9,21.9,69,30.27,10.0,SSW,17.3,23.0,N/A,,Clear,200,2013-01-07 15:53:00
10:53 AM,35.1,24.1,64,30.24,10.0,SSW,13.8,27.6,N/A,,Clear,200,2013-01-07 16:53:00
11:53 AM,37.9,24.1,57,30.19,10.0,SSW,18.4,27.6,N/A,,Clear,200,2013-01-07 17:53:00
12:53 PM,39.2,24.8,56,30.13,10.0,SSW,18.4,24.2,N/A,,Clear,200,2013-01-07 18:53:00
1:53 PM,39.9,25.0,55,30.15,10.0,SSW,16.1,-,N/A,,Clear,210,2013-01-07 19:53:00
2:53 PM,39.9,26.1,58,30.13,10.0,South,17.3,25.3,N/A,,Clear,190,2013-01-07 20:53:00
3:53 PM,39.0,26.1,60,30.12,10.0,SSW,12.7,-,N/A,,Clear,200,2013-01-07 21:53:00
4:53 PM,37.0,26.1,65,30.11,10.0,SSW,13.8,-,N/A,,Clear,200,2013-01-07 22:53:00
5:53 PM,37.0,26.1,65,30.12,10.0,SSW,8.1,-,N/A,,Clear,200,2013-01-07 23:53:00
6:53 PM,34.0,27.0,75,30.11,10.0,SSW,4.6,-,N/A,,Clear,210,2013-01-08 00:53:00
7:53 PM,33.1,26.1,75,30.11,10.0,South,4.6,-,N/A,,Clear,180,2013-01-08 01:53:00
8:53 PM,30.9,26.1,82,30.11,10.0,South,6.9,-,N/A,,Clear,180,2013-01-08 02:53:00
9:53 PM,30.9,25.0,79,30.10,10.0,South,8.1,-,N/A,,Clear,180,2013-01-08 03:53:00
10:53 PM,30.9,26.1,82,30.11,10.0,South,5.8,-,N/A,,Clear,190,2013-01-08 04:53:00
11:53 PM,33.1,26.1,75,30.09,10.0,SSW,6.9,-,N/A,,Clear,200,2013-01-08 05:53:00